createdAt,value
2022-12-03T00:01:24.157Z,101397.56
2022-12-03T00:03:51.710Z,101390.31
2022-12-03T00:06:20.725Z,101390.41
2022-12-03T00:08:48.680Z,101392.28
2022-12-03T00:11:16.585Z,101390.56
2022-12-03T00:13:44.010Z,101392.72
2022-12-03T00:16:11.479Z,101392.28
2022-12-03T00:18:38.932Z,101393.00
2022-12-03T00:21:07.214Z,101392.16
2022-12-03T00:23:41.806Z,101387.00
2022-12-03T00:26:10.084Z,101386.63
2022-12-03T00:28:37.510Z,101386.88
2022-12-03T00:31:05.282Z,101376.91
2022-12-03T00:33:32.762Z,101375.97
2022-12-03T00:36:00.294Z,101375.81
2022-12-03T00:38:27.769Z,101372.41
2022-12-03T00:40:56.685Z,101378.53
2022-12-03T00:43:24.208Z,101372.13
2022-12-03T00:45:52.555Z,101376.09
2022-12-03T00:48:19.978Z,101373.38
2022-12-03T00:50:47.416Z,101369.59
2022-12-03T00:53:14.868Z,101371.41
2022-12-03T00:55:42.299Z,101371.28
2022-12-03T00:58:11.761Z,101374.00
2022-12-03T01:00:39.161Z,101374.09
2022-12-03T01:03:06.666Z,101376.81
2022-12-03T01:05:34.148Z,101376.53
2022-12-03T01:08:01.687Z,101372.75
2022-12-03T01:10:29.962Z,101365.91
2022-12-03T01:12:57.393Z,101368.25
2022-12-03T01:15:26.337Z,101361.97
2022-12-03T01:17:53.942Z,101368.34
2022-12-03T01:20:21.820Z,101360.34
2022-12-03T01:22:49.343Z,101359.41
2022-12-03T01:25:16.900Z,101362.31
2022-12-03T01:27:44.381Z,101363.31
2022-12-03T01:30:13.282Z,101363.66
2022-12-03T01:32:42.200Z,101360.13
2022-12-03T01:35:09.781Z,101360.13
2022-12-03T01:37:37.833Z,101354.84
2022-12-03T01:40:08.035Z,101349.56
2022-12-03T01:42:40.913Z,101355.22
2022-12-03T01:45:14.186Z,101349.72
2022-12-03T01:47:43.170Z,101346.41
2022-12-03T01:50:21.002Z,101345.16
2022-12-03T01:52:48.682Z,101345.75
2022-12-03T01:55:20.935Z,101357.91
2022-12-03T01:57:51.549Z,101351.78
2022-12-03T02:00:21.105Z,101352.63
2022-12-03T02:02:53.481Z,101357.94
2022-12-03T02:05:22.926Z,101352.78
2022-12-03T02:07:50.834Z,101351.78
2022-12-03T02:10:22.083Z,101347.84
2022-12-03T02:12:54.136Z,101353.72
2022-12-03T02:15:22.235Z,101355.72
2022-12-03T02:17:51.477Z,101350.31
2022-12-03T02:20:19.447Z,101349.09
2022-12-03T02:22:54.037Z,101339.75
2022-12-03T02:25:24.945Z,101343.44
2022-12-03T02:27:54.769Z,101341.47
2022-12-03T02:30:26.513Z,101339.41
2022-12-03T02:32:54.825Z,101338.19
2022-12-03T02:35:24.354Z,101338.94
2022-12-03T02:37:57.303Z,101342.84
2022-12-03T02:40:29.211Z,101340.50
2022-12-03T02:43:00.009Z,101350.16
2022-12-03T02:45:31.051Z,101351.31
2022-12-03T02:48:01.553Z,101343.19
2022-12-03T02:50:32.856Z,101342.44
2022-12-03T02:53:02.828Z,101341.13
2022-12-03T02:55:37.122Z,101345.41
2022-12-03T02:58:06.007Z,101340.28
2022-12-03T03:00:33.877Z,101335.56
2022-12-03T03:03:03.358Z,101342.78
2022-12-03T03:05:31.135Z,101339.44
2022-12-03T03:08:00.105Z,101333.41
2022-12-03T03:10:29.346Z,101333.19
2022-12-03T03:12:59.118Z,101337.72
2022-12-03T03:15:26.653Z,101330.84
2022-12-03T03:17:54.206Z,101335.63
2022-12-03T03:20:21.877Z,101335.88
2022-12-03T03:23:14.825Z,101332.72
2022-12-03T03:25:44.686Z,101320.53
2022-12-03T03:28:15.063Z,101334.44
2022-12-03T03:30:44.066Z,101325.25
2022-12-03T03:33:13.284Z,101323.16
2022-12-03T03:35:40.975Z,101330.28
2022-12-03T03:38:10.040Z,101328.47
2022-12-03T03:40:38.602Z,101322.94
2022-12-03T03:43:07.183Z,101323.78
2022-12-03T03:45:36.667Z,101330.78
2022-12-03T03:48:04.522Z,101336.50
2022-12-03T03:50:32.589Z,101334.69
2022-12-03T03:53:02.964Z,101326.06
2022-12-03T03:55:31.337Z,101323.91
2022-12-03T03:57:59.091Z,101319.34
2022-12-03T04:00:26.745Z,101314.81
2022-12-03T04:02:56.190Z,101310.97
2022-12-03T04:05:25.021Z,101317.00
2022-12-03T04:07:52.767Z,101315.28
2022-12-03T04:10:20.217Z,101322.16
2022-12-03T04:12:47.639Z,101320.06
2022-12-03T04:15:15.310Z,101313.69
2022-12-03T04:17:42.752Z,101317.38
2022-12-03T04:20:12.994Z,101316.53
2022-12-03T04:22:41.079Z,101321.91
2022-12-03T04:25:10.303Z,101317.63
2022-12-03T04:27:37.747Z,101315.50
2022-12-03T04:30:06.239Z,101309.50
2022-12-03T04:32:33.777Z,101314.28
2022-12-03T04:35:02.051Z,101319.69
2022-12-03T04:37:31.038Z,101307.28
2022-12-03T04:39:58.687Z,101317.09
2022-12-03T04:42:26.417Z,101311.47
2022-12-03T04:44:54.212Z,101312.94
2022-12-03T04:47:22.611Z,101312.94
2022-12-03T04:49:51.701Z,101308.41
2022-12-03T04:52:20.708Z,101307.78
2022-12-03T04:54:49.871Z,101307.69
2022-12-03T04:57:17.612Z,101294.78
2022-12-03T04:59:45.080Z,101303.75
2022-12-03T05:02:13.034Z,101297.03
2022-12-03T05:04:40.617Z,101305.13
2022-12-03T05:07:08.205Z,101297.03
2022-12-03T05:09:36.009Z,101302.78
2022-12-03T05:12:05.576Z,101305.84
2022-12-03T05:14:32.998Z,101298.63
2022-12-03T05:17:01.080Z,101291.25
2022-12-03T05:19:28.691Z,101293.97
2022-12-03T05:21:57.382Z,101288.56
2022-12-03T05:24:25.229Z,101291.38
2022-12-03T05:26:53.432Z,101287.50
2022-12-03T05:29:22.401Z,101287.34
2022-12-03T05:31:50.575Z,101287.72
2022-12-03T05:34:18.167Z,101292.50
2022-12-03T05:36:45.706Z,101291.28
2022-12-03T05:39:13.568Z,101289.44
2022-12-03T05:41:41.246Z,101298.03
2022-12-03T05:44:08.733Z,101292.38
2022-12-03T05:46:38.065Z,101297.41
2022-12-03T05:49:05.803Z,101293.28
2022-12-03T05:51:33.326Z,101295.72
2022-12-03T05:54:01.090Z,101284.91
2022-12-03T05:56:29.142Z,101290.56
2022-12-03T05:58:56.752Z,101286.75
2022-12-03T06:01:24.524Z,101287.34
2022-12-03T06:03:54.225Z,101288.56
2022-12-03T06:06:22.218Z,101281.56
2022-12-03T06:08:50.854Z,101287.34
2022-12-03T06:11:18.266Z,101286.88
2022-12-03T06:13:45.748Z,101284.53
2022-12-03T06:16:13.328Z,101289.44
2022-12-03T06:18:40.807Z,101282.69
2022-12-03T06:21:09.712Z,101288.06
2022-12-03T06:23:37.256Z,101285.63
2022-12-03T06:26:04.868Z,101272.03
2022-12-03T06:28:32.294Z,101288.81
2022-12-03T06:31:00.474Z,101286.38
2022-12-03T06:33:27.998Z,101284.66
2022-12-03T06:35:55.488Z,101281.84
2022-12-03T06:38:24.533Z,101274.47
2022-12-03T06:40:51.959Z,101271.38
2022-12-03T06:43:19.476Z,101274.69
2022-12-03T06:45:48.048Z,101261.47
2022-12-03T06:48:15.961Z,101267.09
2022-12-03T06:50:43.496Z,101262.09
2022-12-03T06:53:11.343Z,101264.91
2022-12-03T06:55:40.526Z,101260.00
2022-12-03T06:58:08.120Z,101252.50
2022-12-03T07:00:36.292Z,101258.91
2022-12-03T07:03:03.879Z,101264.75
2022-12-03T07:05:31.634Z,101254.06
2022-12-03T07:07:59.682Z,101259.19
2022-12-03T07:10:27.557Z,101243.88
2022-12-03T07:12:56.538Z,101245.06
2022-12-03T07:15:24.166Z,101240.91
2022-12-03T07:17:51.761Z,101238.06
2022-12-03T07:20:19.962Z,101236.88
2022-12-03T07:22:47.919Z,101229.66
2022-12-03T07:25:21.253Z,101230.38
2022-12-03T07:27:51.307Z,101227.94
2022-12-03T07:30:20.826Z,101219.97
2022-12-03T07:32:48.366Z,101225.63
2022-12-03T07:35:16.278Z,101216.41
2022-12-03T07:37:43.831Z,101208.31
2022-12-03T07:40:12.693Z,101209.91
2022-12-03T07:42:40.577Z,101209.09
2022-12-03T07:45:10.074Z,101203.22
2022-12-03T07:47:39.092Z,101205.66
2022-12-03T07:50:08.366Z,101201.84
2022-12-03T07:52:36.049Z,101210.06
2022-12-03T07:55:03.804Z,101208.34
2022-12-03T07:57:31.445Z,101200.75
2022-12-03T07:59:59.535Z,101199.03
2022-12-03T08:02:27.155Z,101192.56
2022-12-03T08:04:56.454Z,101189.59
2022-12-03T08:07:24.395Z,101192.19
2022-12-03T08:09:52.072Z,101202.13
2022-12-03T08:12:24.765Z,101196.84
2022-12-03T08:14:52.989Z,101203.22
2022-12-03T08:17:20.838Z,101202.69
2022-12-03T08:19:50.377Z,101201.34
2022-12-03T08:22:19.514Z,101196.59
2022-12-03T08:24:47.062Z,101183.50
2022-12-03T08:27:18.263Z,101186.00
2022-12-03T08:29:46.398Z,101187.97
2022-12-03T08:32:14.231Z,101191.19
2022-12-03T08:34:43.734Z,101188.25
2022-12-03T08:37:16.588Z,101192.44
2022-12-03T08:39:47.653Z,101191.84
2022-12-03T08:42:19.282Z,101180.19
2022-12-03T08:44:46.913Z,101181.66
2022-12-03T08:47:19.397Z,101178.09
2022-12-03T08:49:54.565Z,101179.34
2022-12-03T08:52:26.955Z,101176.97
2022-12-03T08:54:56.408Z,101180.28
2022-12-03T08:57:26.890Z,101173.41
2022-12-03T08:59:58.289Z,101169.28
2022-12-03T09:02:31.260Z,101167.19
2022-12-03T09:05:09.205Z,101162.63
2022-12-03T09:07:37.298Z,101149.28
2022-12-03T09:10:08.098Z,101144.72
2022-12-03T09:12:35.593Z,101140.53
2022-12-03T09:15:03.106Z,101143.28
2022-12-03T09:17:30.773Z,101145.31
2022-12-03T09:19:58.549Z,101140.78
2022-12-03T09:22:27.160Z,101135.03
2022-12-03T09:24:55.336Z,101136.69
2022-12-03T09:27:25.510Z,101129.94
2022-12-03T09:29:53.483Z,101133.69
2022-12-03T09:32:21.044Z,101130.00
2022-12-03T09:34:49.263Z,101123.50
2022-12-03T09:37:17.253Z,101116.66
2022-12-03T09:39:44.790Z,101117.13
2022-12-03T09:42:12.469Z,101116.19
2022-12-03T09:44:41.720Z,101113.03
2022-12-03T09:47:09.498Z,101119.16
2022-12-03T09:49:38.496Z,101112.47
2022-12-03T09:52:06.504Z,101104.47
2022-12-03T09:54:34.533Z,101104.34
2022-12-03T09:57:04.470Z,101102.34
2022-12-03T09:59:34.185Z,101105.91
2022-12-03T10:02:09.912Z,101095.91
2022-12-03T10:04:37.780Z,101102.03
2022-12-03T10:07:05.440Z,101095.50
2022-12-03T10:09:33.057Z,101090.25
2022-12-03T10:12:01.653Z,101083.88
2022-12-03T10:14:30.652Z,101083.28
2022-12-03T10:16:58.832Z,101084.53
2022-12-03T10:19:31.421Z,101071.06
2022-12-03T10:21:59.157Z,101071.31
2022-12-03T10:24:28.519Z,101070.78
2022-12-03T10:26:57.780Z,101070.47
2022-12-03T10:29:33.279Z,101072.47
2022-12-03T10:32:04.621Z,101067.56
2022-12-03T10:34:34.791Z,101066.28
2022-12-03T10:37:15.060Z,101065.88
2022-12-03T10:40:00.925Z,101075.38
2022-12-03T10:42:30.250Z,101066.41
2022-12-03T10:45:12.256Z,101072.28
2022-12-03T10:47:39.900Z,101064.84
2022-12-03T10:50:17.198Z,101060.28
2022-12-03T10:52:45.370Z,101055.88
2022-12-03T10:55:15.066Z,101061.28
2022-12-03T10:57:46.257Z,101054.91
2022-12-03T11:00:16.942Z,101061.56
2022-12-03T11:02:44.748Z,101051.75
2022-12-03T11:05:16.762Z,101056.88
2022-12-03T11:07:45.261Z,101047.78
2022-12-03T11:10:18.282Z,101043.78
2022-12-03T11:13:18.658Z,101048.19
2022-12-03T11:15:46.636Z,101034.72
2022-12-03T11:18:57.085Z,101038.53
2022-12-03T11:21:26.476Z,101041.22
2022-12-03T11:24:19.852Z,101043.66
2022-12-03T11:27:07.725Z,101037.13
2022-12-03T11:29:56.570Z,101034.44
2022-12-03T11:33:06.334Z,101029.59
2022-12-03T11:36:11.941Z,101028.84
2022-12-03T11:38:55.553Z,101023.91
2022-12-03T11:41:29.405Z,101024.03
2022-12-03T11:44:34.211Z,101024.50
2022-12-03T11:47:13.312Z,101018.09
2022-12-03T11:49:48.577Z,101017.66
2022-12-03T11:52:29.480Z,101017.13
2022-12-03T11:55:02.825Z,101017.41
2022-12-03T11:57:37.159Z,101011.00
2022-12-03T12:00:17.789Z,101009.88
2022-12-03T12:02:45.730Z,101005.31
2022-12-03T12:05:22.744Z,101014.41
2022-12-03T12:07:50.796Z,101017.41
2022-12-03T12:10:40.480Z,101012.59
2022-12-03T12:13:25.000Z,101005.31
2022-12-03T12:15:54.799Z,101007.03
2022-12-03T12:18:41.554Z,101007.31
2022-12-03T12:21:41.964Z,101009.31
2022-12-03T12:24:29.215Z,101003.50
2022-12-03T12:26:57.706Z,101005.31
2022-12-03T12:29:26.010Z,100994.09
2022-12-03T12:32:02.563Z,100991.72
2022-12-03T12:34:31.488Z,100987.31
2022-12-03T12:37:00.874Z,100990.72
2022-12-03T12:39:28.378Z,100986.44
2022-12-03T12:41:55.930Z,100982.03
2022-12-03T12:44:23.570Z,100978.22
2022-12-03T12:46:53.156Z,100979.34
2022-12-03T12:49:22.083Z,100980.78
2022-12-03T12:51:51.077Z,100972.66
2022-12-03T12:54:18.754Z,100971.53
2022-12-03T12:56:49.645Z,100968.53
2022-12-03T12:59:19.282Z,100968.81
2022-12-03T13:01:48.514Z,100971.53
2022-12-03T13:04:18.613Z,100966.84
2022-12-03T13:06:48.907Z,100965.41
2022-12-03T13:09:18.165Z,100959.44
2022-12-03T13:11:47.590Z,100962.31
2022-12-03T13:14:18.454Z,100956.75
2022-12-03T13:16:46.471Z,100954.91
2022-12-03T13:19:21.724Z,100955.75
2022-12-03T13:21:52.754Z,100948.06
2022-12-03T13:24:43.372Z,100950.66
2022-12-03T13:27:22.960Z,100950.22
2022-12-03T13:29:51.971Z,100949.78
2022-12-03T13:32:21.688Z,100948.22
2022-12-03T13:34:49.934Z,100952.63
2022-12-03T13:37:22.416Z,100948.94
2022-12-03T13:39:52.114Z,100953.50
2022-12-03T13:42:22.465Z,100940.44
2022-12-03T13:44:50.333Z,100947.41
2022-12-03T13:47:21.071Z,100937.72
2022-12-03T13:49:51.928Z,100938.03
2022-12-03T13:52:24.110Z,100939.56
2022-12-03T13:54:53.460Z,100942.00
2022-12-03T13:57:22.693Z,100942.00
2022-12-03T13:59:50.152Z,100936.16
2022-12-03T14:02:18.271Z,100928.94
2022-12-03T14:04:45.909Z,100937.31
2022-12-03T14:07:13.458Z,100926.94
2022-12-03T14:09:43.388Z,100927.78
2022-12-03T14:12:10.801Z,100921.25
2022-12-03T14:14:38.339Z,100922.53
2022-12-03T14:17:06.108Z,100920.41
2022-12-03T14:19:33.708Z,100922.25
2022-12-03T14:22:01.260Z,100915.69
2022-12-03T14:24:28.984Z,100919.44
2022-12-03T14:26:58.060Z,100914.03
2022-12-03T14:29:25.538Z,100904.94
2022-12-03T14:31:53.762Z,100901.78
2022-12-03T14:34:21.498Z,100909.75
2022-12-03T14:36:51.271Z,100894.44
2022-12-03T14:39:19.081Z,100897.25
2022-12-03T14:41:46.653Z,100897.13
2022-12-03T14:44:15.618Z,100901.53
2022-12-03T14:46:43.935Z,100899.38
2022-12-03T14:49:11.513Z,100888.16
2022-12-03T14:51:39.047Z,100879.06
2022-12-03T14:54:06.606Z,100881.34
2022-12-03T14:56:34.190Z,100888.13
2022-12-03T14:59:01.878Z,100882.91
2022-12-03T15:01:32.182Z,100880.38
2022-12-03T15:03:59.709Z,100880.66
2022-12-03T15:06:27.217Z,100878.84
2022-12-03T15:08:55.493Z,100874.59
2022-12-03T15:11:23.154Z,100878.91
2022-12-03T15:13:50.638Z,100872.22
2022-12-03T15:16:18.760Z,100872.94
2022-12-03T15:18:47.689Z,100874.78
2022-12-03T15:21:15.185Z,100866.94
2022-12-03T15:23:42.644Z,100863.41
2022-12-03T15:26:10.177Z,100849.38
2022-12-03T15:28:37.745Z,100860.88
2022-12-03T15:31:05.569Z,100861.88
2022-12-03T15:33:33.095Z,100863.38
2022-12-03T15:36:02.065Z,100859.84
2022-12-03T15:38:29.584Z,100856.91
2022-12-03T15:40:57.104Z,100850.63
2022-12-03T15:43:24.821Z,100848.06
2022-12-03T15:45:52.631Z,100847.41
2022-12-03T15:48:20.146Z,100844.41
2022-12-03T15:50:47.657Z,100855.19
2022-12-03T15:53:16.996Z,100848.09
2022-12-03T15:55:44.533Z,100837.44
2022-12-03T15:58:12.027Z,100835.59
2022-12-03T16:00:39.566Z,100837.44
2022-12-03T16:03:07.117Z,100837.88
2022-12-03T16:05:34.653Z,100838.47
2022-12-03T16:08:02.384Z,100833.31
2022-12-03T16:10:31.392Z,100828.66
2022-12-03T16:12:58.834Z,100828.50
2022-12-03T16:15:27.528Z,100829.50
2022-12-03T16:17:55.098Z,100823.41
2022-12-03T16:20:22.586Z,100819.69
2022-12-03T16:22:50.198Z,100816.44
2022-12-03T16:25:17.966Z,100816.88
2022-12-03T16:27:47.117Z,100821.09
2022-12-03T16:30:15.482Z,100825.69
2022-12-03T16:32:43.107Z,100824.59
2022-12-03T16:35:10.665Z,100818.00
2022-12-03T16:37:38.165Z,100810.13
2022-12-03T16:40:07.128Z,100811.09
2022-12-03T16:42:35.581Z,100815.81
2022-12-03T16:45:08.616Z,100803.28
2022-12-03T16:47:36.295Z,100815.53
2022-12-03T16:50:05.260Z,100806.03
2022-12-03T16:52:33.145Z,100810.00
2022-12-03T16:55:00.578Z,100802.78
2022-12-03T16:57:33.387Z,100793.84
2022-12-03T17:00:01.535Z,100788.16
2022-12-03T17:02:30.766Z,100789.59
2022-12-03T17:04:58.329Z,100788.88
2022-12-03T17:07:25.869Z,100785.31
2022-12-03T17:09:53.520Z,100774.25
2022-12-03T17:12:21.253Z,100783.88
2022-12-03T17:14:48.747Z,100782.34
2022-12-03T17:17:16.342Z,100775.09
2022-12-03T17:19:45.314Z,100779.22
2022-12-03T17:22:12.911Z,100775.38
2022-12-03T17:24:40.482Z,100778.22
2022-12-03T17:27:08.067Z,100779.66
2022-12-03T17:29:35.522Z,100776.25
2022-12-03T17:32:03.757Z,100776.94
2022-12-03T17:34:31.270Z,100786.03
2022-12-03T17:37:00.221Z,100783.91
2022-12-03T17:39:28.011Z,100789.19
2022-12-03T17:41:55.597Z,100779.34
2022-12-03T17:44:23.114Z,100780.34
2022-12-03T17:46:51.204Z,100786.19
2022-12-03T17:49:18.846Z,100789.19
2022-12-03T17:51:46.434Z,100781.09
2022-12-03T17:54:15.400Z,100785.16
2022-12-03T17:56:42.901Z,100780.50
2022-12-03T17:59:10.599Z,100770.41
2022-12-03T18:01:38.409Z,100773.69
2022-12-03T18:04:06.298Z,100772.00
2022-12-03T18:06:34.277Z,100777.22
2022-12-03T18:09:02.552Z,100771.13
2022-12-03T18:11:31.886Z,100763.44
2022-12-03T18:13:59.474Z,100760.19
2022-12-03T18:16:29.261Z,100761.19
2022-12-03T18:19:00.888Z,100752.94
2022-12-03T18:21:32.374Z,100747.25
2022-12-03T18:24:00.080Z,100745.00
2022-12-03T18:26:28.161Z,100744.00
2022-12-03T18:28:57.251Z,100739.75
2022-12-03T18:31:24.979Z,100738.75
2022-12-03T18:33:52.625Z,100737.91
2022-12-03T18:36:23.191Z,100724.09
2022-12-03T18:38:53.563Z,100731.22
2022-12-03T18:41:23.504Z,100724.13
2022-12-03T18:43:52.218Z,100721.72
2022-12-03T18:49:09.878Z,100731.34
2022-12-03T18:51:37.725Z,100725.13
2022-12-03T18:54:11.769Z,100718.00
2022-12-03T18:56:39.450Z,100711.19
2022-12-03T18:59:07.097Z,100703.53
2022-12-03T19:01:36.879Z,100700.97
2022-12-03T19:04:04.557Z,100703.97
2022-12-03T19:06:32.614Z,100696.00
2022-12-03T19:09:00.185Z,100703.78
2022-12-03T19:11:28.003Z,100704.78
2022-12-03T19:13:55.612Z,100712.47
2022-12-03T19:16:23.900Z,100695.69
2022-12-03T19:18:53.045Z,100691.59
2022-12-03T19:21:20.689Z,100695.69
2022-12-03T19:24:22.185Z,100696.25
2022-12-03T19:26:36.341Z,100698.25
2022-12-03T19:29:04.809Z,100701.41
2022-12-03T19:31:32.538Z,100698.97
2022-12-03T19:34:01.851Z,100698.97
2022-12-03T19:36:30.794Z,100689.72
2022-12-03T19:38:59.943Z,100691.28
2022-12-03T19:41:29.225Z,100690.72
2022-12-03T19:43:57.831Z,100690.72
2022-12-03T19:46:27.747Z,100689.59
2022-12-03T19:48:55.562Z,100682.34
2022-12-03T19:51:34.573Z,100678.25
2022-12-03T19:54:03.731Z,100677.94
2022-12-03T19:56:32.079Z,100674.25
2022-12-03T19:58:59.885Z,100660.03
2022-12-03T20:01:29.052Z,100676.25
2022-12-03T20:03:58.920Z,100669.72
2022-12-03T20:06:29.493Z,100672.00
2022-12-03T20:08:58.596Z,100666.19
2022-12-03T20:11:28.133Z,100665.75
2022-12-03T20:13:58.260Z,100660.34
2022-12-03T20:16:27.434Z,100655.09
2022-12-03T20:18:59.091Z,100654.81
2022-12-03T20:21:30.654Z,100659.91
2022-12-03T20:23:59.208Z,100659.66
2022-12-03T20:26:27.352Z,100663.03
2022-12-03T20:28:55.992Z,100658.34
2022-12-03T20:31:26.011Z,100657.91
2022-12-03T20:33:56.386Z,100666.56
2022-12-03T20:36:24.887Z,100663.19
2022-12-03T20:38:56.322Z,100662.47
2022-12-03T20:41:23.945Z,100664.03
2022-12-03T20:43:51.800Z,100667.75
2022-12-03T20:46:21.225Z,100665.03
2022-12-03T20:48:49.235Z,100651.13
2022-12-03T20:51:18.689Z,100658.91
2022-12-03T20:53:46.704Z,100652.38
2022-12-03T20:56:18.780Z,100649.13
2022-12-03T20:58:46.826Z,100654.50
2022-12-03T21:01:16.717Z,100656.50
2022-12-03T21:03:44.757Z,100650.81
2022-12-03T21:06:12.417Z,100649.97
2022-12-03T21:08:42.155Z,100638.50
2022-12-03T21:11:11.862Z,100635.78
2022-12-03T21:13:41.044Z,100635.63
2022-12-03T21:16:11.040Z,100623.13
2022-12-03T21:18:39.123Z,100618.44
2022-12-03T21:21:07.221Z,100614.22
2022-12-03T21:23:35.379Z,100610.66
2022-12-03T21:26:05.363Z,100615.75
2022-12-03T21:28:32.884Z,100610.34
2022-12-03T21:31:03.803Z,100609.94
2022-12-03T21:33:31.863Z,100609.09
2022-12-03T21:36:00.167Z,100603.25
2022-12-03T21:38:29.601Z,100594.31
2022-12-03T21:40:57.842Z,100592.19
2022-12-03T21:43:26.068Z,100584.34
2022-12-03T21:45:53.653Z,100577.13
2022-12-03T21:48:22.975Z,100576.13
2022-12-03T21:50:58.879Z,100582.34
2022-12-03T21:53:26.542Z,100585.06
2022-12-03T21:55:54.251Z,100580.66
2022-12-03T21:58:22.009Z,100587.06
2022-12-03T22:00:49.457Z,100585.91
2022-12-03T22:03:17.054Z,100580.53
2022-12-03T22:05:46.731Z,100579.66
2022-12-03T22:08:14.544Z,100570.59
2022-12-03T22:10:42.017Z,100565.19
2022-12-03T22:13:09.538Z,100577.97
2022-12-03T22:15:39.104Z,100570.59
2022-12-03T22:18:06.907Z,100568.03
2022-12-03T22:20:34.879Z,100559.81
2022-12-03T22:23:03.819Z,100566.03
2022-12-03T22:25:31.279Z,100556.38
2022-12-03T22:27:58.890Z,100562.22
2022-12-03T22:30:26.317Z,100561.81
2022-12-03T22:32:53.837Z,100555.53
2022-12-03T22:35:21.493Z,100560.94
2022-12-03T22:37:48.963Z,100558.38
2022-12-03T22:40:18.574Z,100559.81
2022-12-03T22:42:50.776Z,100556.38
2022-12-03T22:45:18.683Z,100552.69
2022-12-03T22:47:46.450Z,100540.34
2022-12-03T22:50:13.938Z,100541.19
2022-12-03T22:52:41.438Z,100534.78
2022-12-03T22:55:10.165Z,100531.94
2022-12-03T22:57:39.033Z,100535.66
2022-12-03T23:00:09.609Z,100530.25
2022-12-03T23:02:37.207Z,100530.38
2022-12-03T23:05:05.319Z,100528.38
2022-12-03T23:07:32.761Z,100523.84
2022-12-03T23:10:00.253Z,100524.84
2022-12-03T23:12:27.676Z,100515.75
2022-12-03T23:14:57.433Z,100517.22
2022-12-03T23:17:24.976Z,100519.75
2022-12-03T23:19:52.696Z,100523.16
2022-12-03T23:22:20.569Z,100515.75
2022-12-03T23:24:48.079Z,100512.38
2022-12-03T23:27:15.539Z,100520.16
2022-12-03T23:29:43.455Z,100523.28
2022-12-03T23:32:12.453Z,100514.63
2022-12-03T23:34:40.041Z,100513.47
2022-12-03T23:37:07.543Z,100504.81
2022-12-03T23:39:35.199Z,100505.53
2022-12-03T23:42:02.653Z,100495.88
2022-12-03T23:44:30.185Z,100495.63
2022-12-03T23:46:57.768Z,100494.63
2022-12-03T23:49:27.889Z,100490.91
2022-12-03T23:51:55.410Z,100483.53
2022-12-03T23:54:23.210Z,100481.00
2022-12-03T23:56:50.666Z,100467.63
2022-12-03T23:59:18.142Z,100477.72
